Airfield :







YOU CAN JOIN US ON...

 
LOGIN :

Register | Disclaimer

   EN    FR    IT 

 









Legend :    VFR   Marginal VFR   IFR   Intensive IFR   Very Intensive IFR
Visi :
Ceiling :
>= 8 km
>= 3000ft
5 to 8 km
1000 to 3000 ft
1500m to 5 km
500 to 1000 ft
800 to 1500m
200 to 500 ft
< 800m
< 200 ft
Symbols :   Thunderstorms  Fog  Heavy snow  Heavy precipitations  Wind > 20 kt






- Airport Elevation : 827 ft


KDDH - William H. Morse State

CURRENT METAR :
  • 301412Z AUTO 28007KT 260V320 10SM BKN028 BKN032 OVC046 17/11 A2990 RMK AO2 T01720106

EXPIRED METARs :
  • 301354Z AUTO 28009G16KT 10SM SCT026 BKN035 BKN044 18/11 A2990 RMK AO2 SLP121 T01780106
  • 301333Z AUTO 29009G15KT 260V330 10SM SCT027 OVC036 17/11 A2991 RMK AO2 T01720111
  • 301254Z AUTO 27007G14KT 250V310 10SM BKN026 17/11 A2990 RMK AO2 SLP122 T01720111
  • 301229Z AUTO 25007KT 210V280 10SM BKN024 17/11 A2990 RMK AO2 T01670111
  • 301217Z AUTO VRB06KT 10SM SCT022 17/11 A2990 RMK AO2 T01670111
  • 301205Z AUTO 29007G17KT 260V330 10SM BKN021 16/11 A2990 RMK AO2 T01610111
  • 301154Z AUTO 25007G16KT 10SM SCT021 BKN060 17/12 A2990 RMK AO2 SLP118 60001 70001 T01670117 10200 20156 51018

TAF N/A
KZBW FIR / North America



MET'MAP, your aeronautical weather chart ! - Copyright ORBIFLY December 2007 - Disclaimer

ORBIFLY MET'MAP TEAM :

Programming & Development : Alexandra Zaïnal
Concept & original design : Baudouin d'Aumeries
Assistance for programming : Marc-Olivier Méhu
Technical & hardware support : Manuel Goepfert

Contact : metmap@orbifly.com




SOURCES & CREDITS :

   NOAA